Time;durP1;ratioP1;P1;durP2;ratioP2;P2;SDS_P1;SDS_P2;PMS_P1;PMS_P2;Temp;Humidity;BMP_temperature;BMP_pressure;BME280_temperature;BME280_humidity;BME280_pressure;Samples;Min_cycle;Max_cycle;Signal;HPM_P1;HPM_P2
2021/08/06 00:00:21;;;;;;;10.58;3.57;;;;;;;25.64;59.14;98297.78;368879;107;1961925;-70
2021/08/06 00:01:33;;;;;;;11.00;4.45;;;;;;;25.65;58.86;98293.05;381496;106;2075019;-70
2021/08/06 00:02:41;;;;;;;10.21;3.81;;;;;;;25.51;59.32;98293.34;363406;109;1961977;-71
2021/08/06 00:03:48;;;;;;;9.60;4.22;;;;;;;25.48;59.72;98280.17;310666;113;2875098;-72
2021/08/06 00:05:00;;;;;;;8.15;4.02;;;;;;;25.57;59.78;98269.86;388255;106;1962008;-71
2021/08/06 00:06:05;;;;;;;9.05;3.71;;;;;;;25.47;59.76;98275.80;369249;108;1970260;-72
2021/08/06 00:07:18;;;;;;;10.28;3.89;;;;;;;25.58;59.97;98285.29;385041;106;1986016;-72
2021/08/06 00:08:23;;;;;;;12.80;4.58;;;;;;;25.44;59.67;98291.11;355172;109;2964043;-72
2021/08/06 00:09:47;;;;;;;10.83;4.37;;;;;;;25.42;59.24;98290.62;364941;109;1962041;-72
2021/08/06 00:11:00;;;;;;;9.39;3.53;;;;;;;25.56;59.28;98286.77;347443;104;2854951;-72
2021/08/06 00:12:07;;;;;;;8.28;3.44;;;;;;;25.41;59.01;98290.98;356027;105;1961853;-70
2021/08/06 00:13:12;;;;;;;7.92;3.41;;;;;;;25.49;58.01;98290.09;376503;105;1962076;-73
2021/08/06 00:14:18;;;;;;;11.09;3.71;;;;;;;25.50;58.50;98288.14;376785;105;1961906;-72
2021/08/06 00:15:24;;;;;;;8.14;3.77;;;;;;;25.53;58.48;98287.45;375899;105;1965029;-72
2021/08/06 00:16:31;;;;;;;8.67;3.64;;;;;;;25.49;58.84;98281.00;325614;105;2886975;-73
2021/08/06 00:17:43;;;;;;;6.06;3.16;;;;;;;25.56;58.67;98289.53;391768;103;1962104;-71
2021/08/06 00:18:52;;;;;;;7.57;3.89;;;;;;;25.42;58.87;98287.06;369646;109;1969989;-72
2021/08/06 00:20:05;;;;;;;6.67;3.37;;;;;;;25.53;59.10;98285.49;394127;103;1987030;-71
2021/08/06 00:21:11;;;;;;;8.23;3.78;;;;;;;25.44;59.56;98279.24;377118;106;1962887;-71
2021/08/06 00:22:23;;;;;;;7.72;3.77;;;;;;;25.53;58.99;98277.20;391303;103;1986993;-70
2021/08/06 00:23:35;;;;;;;6.71;3.58;;;;;;;25.60;59.19;98282.20;384681;105;1987047;-71
2021/08/06 00:24:40;;;;;;;8.37;3.50;;;;;;;25.48;59.19;98268.30;366873;109;1962043;-71
2021/08/06 00:25:53;;;;;;;10.32;4.02;;;;;;;25.55;59.11;98257.52;385824;106;1986074;-71
2021/08/06 00:26:58;;;;;;;10.28;3.62;;;;;;;25.45;59.35;98267.83;336531;107;1962019;-71
2021/08/06 00:28:22;;;;;;;10.58;4.05;;;;;;;25.41;58.70;98266.10;364517;109;1962095;-71
2021/08/06 00:29:35;;;;;;;8.49;3.74;;;;;;;25.44;58.41;98257.13;392515;104;1961977;-69
2021/08/06 00:30:40;;;;;;;7.92;3.21;;;;;;;25.25;58.99;98270.63;378529;105;1964962;-72
2021/08/06 00:31:52;;;;;;;9.16;3.29;;;;;;;25.34;58.42;98263.06;391342;103;1985963;-72
2021/08/06 00:32:59;;;;;;;7.57;3.17;;;;;;;25.18;58.32;98257.34;372211;107;1963076;-71
2021/08/06 00:34:11;;;;;;;8.67;3.26;;;;;;;25.28;58.35;98259.70;386345;106;1985969;-72
2021/08/06 00:35:16;;;;;;;9.53;2.98;;;;;;;25.11;58.02;98246.80;362596;109;1962030;-71
2021/08/06 00:36:30;;;;;;;7.64;3.27;;;;;;;25.27;57.51;98246.20;402832;101;1985998;-70
2021/08/06 00:37:36;;;;;;;5.48;2.84;;;;;;;25.13;57.69;98241.73;321613;104;2205972;-71
2021/08/06 00:38:48;;;;;;;8.60;3.21;;;;;;;25.13;57.46;98238.97;397866;104;1987041;-71
2021/08/06 00:39:54;;;;;;;6.83;2.57;;;;;;;25.10;57.67;98249.89;379192;105;1961987;-71
2021/08/06 00:40:59;;;;;;;7.72;2.77;;;;;;;25.19;57.49;98231.31;380202;105;1963051;-72
2021/08/06 00:42:04;;;;;;;8.61;3.03;;;;;;;25.17;57.74;98233.63;379243;105;1961948;-71
2021/08/06 00:43:16;;;;;;;7.62;3.09;;;;;;;25.21;57.70;98235.35;379152;106;2895984;-71
2021/08/06 00:44:22;;;;;;;7.88;2.96;;;;;;;25.07;57.82;98229.27;328745;109;2655988;-72
2021/08/06 00:45:35;;;;;;;7.48;3.16;;;;;;;25.27;58.01;98226.86;394064;103;1964947;-72
2021/08/06 00:46:42;;;;;;;11.71;3.35;;;;;;;25.09;58.09;98204.88;372044;107;1969024;-72
2021/08/06 00:48:06;;;;;;;7.92;3.36;;;;;;;25.02;58.20;98207.37;376428;105;1961941;-72
2021/08/06 00:49:13;;;;;;;7.27;3.01;;;;;;;25.31;57.68;98214.80;379085;105;1964049;-72
2021/08/06 00:50:26;;;;;;;8.42;3.05;;;;;;;25.33;57.92;98211.70;391749;104;1984886;-70
2021/08/06 00:51:31;;;;;;;5.02;2.39;;;;;;;25.06;58.57;98204.73;374872;105;1961908;-71
2021/08/06 00:52:44;;;;;;;6.16;2.50;;;;;;;24.88;58.44;98199.36;342039;104;2839959;-72
2021/08/06 00:53:51;;;;;;;7.40;2.87;;;;;;;24.85;58.86;98215.77;370191;107;1962037;-71
2021/08/06 00:55:17;;;;;;;5.97;2.61;;;;;;;24.97;58.88;98210.33;371298;107;1961963;-72
2021/08/06 00:56:29;;;;;;;6.42;2.52;;;;;;;25.02;58.56;98199.08;389587;103;2073029;-71
2021/08/06 00:57:35;;;;;;;7.22;2.31;;;;;;;24.76;58.51;98190.98;352643;105;1964039;-72
2021/08/06 00:58:47;;;;;;;4.77;2.27;;;;;;;24.97;58.84;98196.52;397441;104;1985954;-71
2021/08/06 00:59:55;;;;;;;5.33;1.97;;;;;;;24.85;59.03;98199.20;382165;105;1962020;-71
2021/08/06 01:01:24;;;;;;;6.88;2.41;;;;;;;24.87;58.72;98194.95;379767;105;1961998;-71
2021/08/06 01:02:47;;;;;;;4.18;1.93;;;;;;;24.89;58.76;98195.44;337530;105;2700939;-71
2021/08/06 01:04:19;;;;;;;4.69;2.16;;;;;;;24.95;58.32;98182.23;388085;106;1985998;-69
2021/08/06 01:05:29;;;;;;;6.29;2.32;;;;;;;24.87;58.40;98185.87;368180;109;1962984;-72
2021/08/06 01:07:01;;;;;;;5.28;2.26;;;;;;;24.81;58.16;98193.55;335199;109;2555909;-72
2021/08/06 01:08:17;;;;;;;5.55;1.95;;;;;;;24.81;58.60;98182.50;327979;109;2646981;-72
2021/08/06 01:09:49;;;;;;;6.41;2.23;;;;;;;24.87;57.97;98185.87;393159;104;2073075;-72
2021/08/06 01:11:04;;;;;;;6.77;2.04;;;;;;;24.89;58.62;98175.30;393514;104;1987000;-72
2021/08/06 01:12:57;;;;;;;6.54;2.02;;;;;;;24.83;58.14;98169.17;368386;105;1968077;-72
2021/08/06 01:14:13;;;;;;;6.37;2.15;;;;;;;25.01;58.02;98178.14;386147;106;1986066;-71
2021/08/06 01:15:19;;;;;;;4.36;1.69;;;;;;;24.90;58.12;98177.73;335014;108;1977901;-72
2021/08/06 01:16:28;;;;;;;7.37;1.83;;;;;;;24.87;57.96;98185.87;367822;108;1964062;-72
2021/08/06 01:17:38;;;;;;;4.94;2.18;;;;;;;24.93;58.18;98181.78;306206;110;2211027;-72
2021/08/06 01:18:54;;;;;;;5.33;2.43;;;;;;;24.98;57.55;98170.50;392093;104;1986881;-71
2021/08/06 01:20:25;;;;;;;6.94;2.43;;;;;;;24.93;57.39;98176.26;380109;105;1963991;-71
2021/08/06 01:21:35;;;;;;;4.96;1.73;;;;;;;25.00;57.52;98152.44;379440;105;1961990;-71
2021/08/06 01:23:01;;;;;;;5.11;2.10;;;;;;;25.32;57.02;98161.12;399422;101;1986069;-71
2021/08/06 01:24:10;;;;;;;5.72;2.12;;;;;;;25.16;57.03;98152.66;378593;105;1962974;-69
2021/08/06 01:25:45;;;;;;;6.14;1.98;;;;;;;25.28;56.99;98156.63;393735;104;1989063;-71
2021/08/06 01:26:55;;;;;;;6.47;1.95;;;;;;;25.08;56.60;98155.47;376620;106;1961974;-71
2021/08/06 01:28:22;;;;;;;6.96;2.09;;;;;;;24.96;56.38;98154.28;371338;106;1962919;-71
2021/08/06 01:29:36;;;;;;;7.14;2.11;;;;;;;25.18;56.70;98133.79;395074;104;1988071;-71
2021/08/06 01:30:44;;;;;;;6.66;2.65;;;;;;;25.19;57.04;98135.42;377824;106;1962002;-70
2021/08/06 01:31:57;;;;;;;7.15;2.44;;;;;;;25.28;56.92;98123.47;357876;104;2877074;-71
2021/08/06 01:33:03;;;;;;;4.86;1.95;;;;;;;25.20;56.45;98106.62;352643;107;1962084;-71
2021/08/06 01:34:27;;;;;;;7.41;2.38;;;;;;;25.18;57.02;98099.83;367220;107;1964068;-72
2021/08/06 01:35:39;;;;;;;6.17;2.08;;;;;;;25.25;57.26;98090.99;389276;104;2077049;-70
2021/08/06 01:36:45;;;;;;;6.06;2.18;;;;;;;25.19;56.76;98074.63;377200;106;1969925;-70
2021/08/06 01:37:58;;;;;;;6.32;2.37;;;;;;;25.25;57.41;98049.54;383749;104;2888977;-71
2021/08/06 01:39:05;;;;;;;6.31;2.22;;;;;;;25.01;57.61;98028.95;347051;108;1964016;-71
2021/08/06 01:40:33;;;;;;;7.41;2.82;;;;;;;25.00;57.45;98000.50;336076;107;2433036;-71
2021/08/06 01:42:09;;;;;;;5.84;2.19;;;;;;;25.13;56.76;97990.28;386817;104;1986981;-72
2021/08/06 01:43:26;;;;;;;6.22;2.42;;;;;;;25.03;57.28;97992.69;368496;107;1961937;-71
2021/08/06 01:44:44;;;;;;;5.62;2.39;;;;;;;25.19;57.49;97977.08;385828;104;2852964;-71
2021/08/06 01:45:55;;;;;;;8.02;2.47;;;;;;;25.09;57.39;97970.03;333429;107;2884955;-70
2021/08/06 01:47:22;;;;;;;5.21;1.96;;;;;;;25.10;56.93;97984.65;375411;107;1962960;-71
2021/08/06 01:48:36;;;;;;;5.01;1.73;;;;;;;25.25;56.16;97984.02;393866;104;1985918;-70
2021/08/06 01:49:47;;;;;;;7.79;2.40;;;;;;;25.12;56.20;97977.63;378296;105;1963043;-71
2021/08/06 01:50:54;;;;;;;6.86;2.45;;;;;;;25.17;56.07;97980.20;378405;105;1962009;-70
2021/08/06 01:52:10;;;;;;;5.05;1.89;;;;;;;25.41;56.06;97960.06;346171;104;2176936;-71
2021/08/06 01:53:18;;;;;;;4.72;1.93;;;;;;;25.15;55.23;97956.80;376080;107;1962024;-70
2021/08/06 01:54:33;;;;;;;6.97;1.77;;;;;;;25.27;55.80;97954.09;394766;104;1985734;-70
2021/08/06 01:55:43;;;;;;;6.78;2.06;;;;;;;25.22;55.71;97957.87;375995;107;1961918;-70
2021/08/06 01:57:10;;;;;;;7.13;2.29;;;;;;;25.23;54.59;97976.05;354931;107;1961870;-70
2021/08/06 01:58:24;;;;;;;7.22;2.79;;;;;;;25.48;55.15;97998.17;356850;106;1995959;-70
2021/08/06 01:59:33;;;;;;;5.72;1.78;;;;;;;25.42;54.41;98003.13;365814;109;1961867;-71
2021/08/06 02:00:47;;;;;;;7.27;1.97;;;;;;;25.60;55.17;98009.25;395314;104;1986985;-71
2021/08/06 02:01:54;;;;;;;6.59;2.01;;;;;;;25.50;54.58;98026.29;365140;107;2924972;-70
2021/08/06 02:03:18;;;;;;;3.74;1.54;;;;;;;25.41;54.08;98040.23;371531;107;1962053;-72
2021/08/06 02:04:31;;;;;;;5.34;2.06;;;;;;;25.31;54.62;98098.70;394957;104;2073027;-72
2021/08/06 02:05:51;;;;;;;6.52;1.97;;;;;;;25.09;54.58;98129.48;301137;105;2339992;-72
2021/08/06 02:07:04;;;;;;;6.48;2.35;;;;;;;25.27;55.17;98124.59;400835;101;1985983;-73
2021/08/06 02:08:10;;;;;;;4.66;2.30;;;;;;;25.10;55.22;98108.98;348519;105;2569023;-71
2021/08/06 02:09:37;;;;;;;5.76;2.46;;;;;;;25.17;55.42;98059.54;377643;107;1962988;-71
2021/08/06 02:10:50;;;;;;;4.64;1.73;;;;;;;25.43;55.87;98056.45;392123;104;1986021;-72
2021/08/06 02:11:57;;;;;;;7.12;1.86;;;;;;;25.31;55.30;98070.27;373945;107;1962028;-72
2021/08/06 02:13:05;;;;;;;5.23;2.03;;;;;;;25.27;54.99;98066.56;373172;107;1963044;-72
2021/08/06 02:14:19;;;;;;;10.41;2.58;;;;;;;25.41;55.62;98069.84;390596;104;2074038;-69
2021/08/06 02:15:27;;;;;;;3.70;1.86;;;;;;;25.23;55.49;98083.83;347361;107;2458975;-72
2021/08/06 02:16:34;;;;;;;4.54;1.59;;;;;;;25.34;54.42;98091.70;372548;107;1964067;-71
2021/08/06 02:17:47;;;;;;;3.50;1.44;;;;;;;25.44;54.63;98096.78;389721;104;2072963;-72
2021/08/06 02:19:02;;;;;;;3.92;1.61;;;;;;;25.13;54.69;98102.77;368803;107;1970037;-71
2021/08/06 02:20:16;;;;;;;5.78;1.53;;;;;;;25.19;55.13;98076.56;394377;104;1966054;-71
2021/08/06 02:21:32;;;;;;;7.17;1.99;;;;;;;25.13;55.35;98078.70;348813;107;2448079;-69
2021/08/06 02:22:43;;;;;;;4.50;1.42;;;;;;;25.17;56.30;98071.39;374298;107;1964852;-69
2021/08/06 02:23:57;;;;;;;6.10;1.54;;;;;;;25.28;56.28;98068.20;394161;104;1986987;-73
2021/08/06 02:25:06;;;;;;;4.12;1.93;;;;;;;25.11;55.59;98071.91;348391;105;1963061;-71
2021/08/06 02:26:13;;;;;;;4.86;1.63;;;;;;;25.05;55.97;98076.84;376464;107;1962991;-70
2021/08/06 02:27:21;;;;;;;5.21;1.71;;;;;;;24.98;55.73;98077.41;374045;105;1961946;-72
2021/08/06 02:28:27;;;;;;;5.82;1.97;;;;;;;24.99;56.36;98072.69;371841;107;1961966;-71
2021/08/06 02:29:35;;;;;;;2.82;1.51;;;;;;;24.97;56.23;98070.25;370277;107;1961996;-71
2021/08/06 02:30:50;;;;;;;4.95;1.98;;;;;;;25.11;56.39;98085.72;397471;103;1986076;-71
2021/08/06 02:31:59;;;;;;;3.42;1.63;;;;;;;24.99;56.60;98087.30;348465;105;2531862;-71
2021/08/06 02:33:12;;;;;;;4.97;1.62;;;;;;;25.03;56.77;98083.85;344559;104;2149937;-73
2021/08/06 02:34:19;;;;;;;5.04;1.91;;;;;;;24.92;57.15;98075.18;370209;107;1961946;-70
2021/08/06 02:35:43;;;;;;;6.94;1.96;;;;;;;24.93;56.83;98069.33;370779;107;1962854;-72
2021/08/06 02:36:52;;;;;;;4.79;1.78;;;;;;;24.93;57.19;98060.24;369716;108;1961901;-72
2021/08/06 02:37:58;;;;;;;3.94;1.82;;;;;;;24.97;56.72;98066.69;371347;107;1964076;-72
2021/08/06 02:39:22;;;;;;;4.72;1.80;;;;;;;25.07;57.04;98066.27;394454;104;1985945;-72
2021/08/06 02:40:28;;;;;;;5.79;1.76;;;;;;;24.90;56.58;98061.73;369761;105;1962024;-70
2021/08/06 02:41:33;;;;;;;4.47;1.88;;;;;;;24.84;56.77;98060.30;372887;105;1961980;-71
2021/08/06 02:42:39;;;;;;;5.01;2.25;;;;;;;24.87;57.41;98062.38;371501;107;1961951;-70
2021/08/06 02:44:11;;;;;;;5.98;2.24;;;;;;;25.02;56.62;98041.61;404307;101;1985932;-72
2021/08/06 02:45:16;;;;;;;3.35;1.90;;;;;;;24.93;56.79;98051.95;383850;103;1961853;-72
2021/08/06 02:46:29;;;;;;;5.48;2.47;;;;;;;25.00;56.60;98035.61;365481;104;2465965;-71
2021/08/06 02:47:35;;;;;;;5.63;2.12;;;;;;;24.93;56.93;98025.14;376858;107;1962040;-71
2021/08/06 02:48:47;;;;;;;16.17;2.91;;;;;;;25.00;56.44;98025.36;391319;104;1986984;-70
2021/08/06 02:49:55;;;;;;;7.84;2.53;;;;;;;24.88;56.31;98019.02;303768;107;2318041;-71
2021/08/06 02:51:18;;;;;;;5.64;2.38;;;;;;;25.05;56.74;98018.82;367408;107;2909000;-71
2021/08/06 02:52:24;;;;;;;8.73;2.65;;;;;;;24.98;56.31;98024.09;368777;107;2912043;-72
2021/08/06 02:53:30;;;;;;;7.76;2.13;;;;;;;24.99;56.66;98020.20;321464;109;2829945;-73
2021/08/06 02:54:42;;;;;;;7.36;2.50;;;;;;;25.03;56.88;98021.11;390669;103;2081005;-73
2021/08/06 02:55:47;;;;;;;4.28;1.97;;;;;;;24.95;56.60;98019.25;374700;107;1962006;-73
2021/08/06 02:57:00;;;;;;;6.40;2.33;;;;;;;25.06;56.40;98014.92;388936;104;2071989;-73
2021/08/06 02:58:06;;;;;;;4.27;1.96;;;;;;;24.97;56.38;98014.20;336807;107;2556986;-72
2021/08/06 02:59:18;;;;;;;7.36;2.48;;;;;;;25.18;56.47;97995.63;392279;104;2071998;-72
2021/08/06 03:00:27;;;;;;;4.19;1.79;;;;;;;25.06;56.43;98009.41;320076;107;2868978;-73
2021/08/06 03:01:51;;;;;;;5.38;1.71;;;;;;;25.06;56.13;98017.69;373215;107;1960875;-73
2021/08/06 03:03:03;;;;;;;4.77;1.63;;;;;;;25.09;56.64;98003.19;392433;104;1960979;-73
2021/08/06 03:04:09;;;;;;;4.51;2.25;;;;;;;25.01;56.27;98001.33;370475;109;1970427;-74
2021/08/06 03:05:22;;;;;;;6.52;2.16;;;;;;;25.15;56.33;98001.84;407317;101;1987971;-73
2021/08/06 03:06:28;;;;;;;4.46;1.82;;;;;;;25.04;56.02;98000.64;342620;103;2409873;-73
2021/08/06 03:07:53;;;;;;;3.60;1.71;;;;;;;25.05;56.07;97996.72;359942;103;1963079;-72
2021/08/06 03:09:05;;;;;;;5.83;2.11;;;;;;;25.18;55.89;97998.39;374836;109;1987052;-71
2021/08/06 03:10:12;;;;;;;6.06;2.27;;;;;;;25.07;56.28;98007.44;358218;111;1961912;-73
2021/08/06 03:11:18;;;;;;;5.74;2.18;;;;;;;25.05;55.91;97993.16;357977;111;1961859;-73
2021/08/06 03:12:30;;;;;;;4.25;2.04;;;;;;;25.26;56.46;98006.92;387831;104;2072949;-72
2021/08/06 03:13:35;;;;;;;3.84;1.97;;;;;;;25.08;55.82;98001.55;371344;107;1961997;-71
2021/08/06 03:14:47;;;;;;;5.80;2.39;;;;;;;25.16;55.97;98002.64;398455;104;1987988;-73
2021/08/06 03:15:53;;;;;;;4.01;1.56;;;;;;;25.09;55.83;98005.95;373486;107;1962027;-70
2021/08/06 03:17:06;;;;;;;6.20;2.39;;;;;;;25.22;56.06;97991.03;345570;104;2175966;-70
2021/08/06 03:18:18;;;;;;;4.74;1.94;;;;;;;25.34;56.00;97997.72;394798;103;1962124;-72
2021/08/06 03:19:41;;;;;;;5.16;1.96;;;;;;;25.25;55.68;98003.36;375101;105;1961982;-71
2021/08/06 03:20:55;;;;;;;6.95;2.04;;;;;;;25.41;55.79;98009.02;394001;104;2073012;-71
2021/08/06 03:22:02;;;;;;;4.74;1.95;;;;;;;25.32;55.17;98025.69;339462;105;2591054;-72
2021/08/06 03:23:25;;;;;;;5.17;2.42;;;;;;;25.38;55.60;98029.06;373391;107;1962124;-71
2021/08/06 03:24:37;;;;;;;4.82;1.92;;;;;;;25.58;56.08;98008.78;384529;106;1961933;-73
2021/08/06 03:25:43;;;;;;;4.54;1.89;;;;;;;25.63;55.37;98011.31;362618;107;1970005;-71
2021/08/06 03:26:48;;;;;;;5.08;2.02;;;;;;;25.68;54.32;97990.13;370301;109;1961885;-72
2021/08/06 03:28:01;;;;;;;4.03;1.96;;;;;;;25.75;53.81;97996.69;404042;101;1988899;-73
2021/08/06 03:29:07;;;;;;;4.09;1.73;;;;;;;25.45;54.28;98004.40;387790;103;1962985;-72
2021/08/06 03:30:14;;;;;;;5.55;2.14;;;;;;;25.45;54.45;98009.93;358164;103;2453043;-72
2021/08/06 03:31:27;;;;;;;4.86;1.93;;;;;;;25.70;54.63;98005.22;394586;103;1986985;-72
2021/08/06 03:32:34;;;;;;;7.08;2.52;;;;;;;25.64;54.67;97985.30;342710;105;1961952;-71
2021/08/06 03:33:40;;;;;;;3.92;1.82;;;;;;;25.69;54.58;97992.53;373121;108;1963088;-72
2021/08/06 03:34:51;;;;;;;4.81;1.78;;;;;;;25.70;54.43;97982.30;395333;104;1986959;-71
2021/08/06 03:35:57;;;;;;;4.97;2.20;;;;;;;25.66;53.96;97987.70;375282;107;1962016;-71
2021/08/06 03:37:10;;;;;;;4.86;1.77;;;;;;;25.81;54.50;98000.03;372760;108;2842046;-72
2021/08/06 03:38:21;;;;;;;7.79;1.99;;;;;;;25.73;54.57;98009.25;357396;111;1964712;-72
2021/08/06 03:39:46;;;;;;;4.50;2.01;;;;;;;25.70;54.01;98004.42;314237;112;2757011;-72
2021/08/06 03:40:58;;;;;;;5.07;2.24;;;;;;;25.90;54.27;98000.72;392779;103;1964990;-71
2021/08/06 03:42:03;;;;;;;4.89;1.66;;;;;;;25.78;54.62;98001.52;373593;107;1972020;-71
2021/08/06 03:43:09;;;;;;;5.28;2.24;;;;;;;25.87;54.10;97995.89;368410;108;1960879;-71
2021/08/06 03:44:21;;;;;;;4.84;1.97;;;;;;;25.92;54.12;98001.19;359780;106;1992799;-72
2021/08/06 03:45:27;;;;;;;3.34;1.81;;;;;;;25.80;53.80;98010.28;356695;108;1960768;-72
2021/08/06 03:46:34;;;;;;;4.39;1.84;;;;;;;25.87;53.45;97999.45;369833;109;1960910;-72
2021/08/06 03:47:46;;;;;;;6.06;2.37;;;;;;;26.04;53.32;98003.14;395068;104;1984801;-72
2021/08/06 03:48:53;;;;;;;6.13;2.18;;;;;;;25.88;54.10;98011.35;337229;107;2587955;-72
2021/08/06 03:49:58;;;;;;;7.86;2.79;;;;;;;25.92;54.23;97998.42;357600;107;1960971;-72
2021/08/06 03:51:10;;;;;;;3.18;1.85;;;;;;;26.01;53.61;97993.58;377925;108;1984892;-72
2021/08/06 03:52:15;;;;;;;6.44;2.26;;;;;;;25.91;53.62;97999.59;364698;111;1961995;-72
2021/08/06 03:53:27;;;;;;;4.28;1.96;;;;;;;26.07;53.41;97994.94;378039;106;2951923;-82
2021/08/06 03:54:34;;;;;;;5.80;2.40;;;;;;;26.01;53.54;97999.11;330475;109;2639003;-81
2021/08/06 03:55:58;;;;;;;5.21;2.18;;;;;;;26.06;53.65;98007.14;367041;110;1962074;-81
2021/08/06 03:57:10;;;;;;;4.83;1.76;;;;;;;26.22;52.88;98009.99;395923;104;1961940;-72
2021/08/06 03:58:16;;;;;;;5.17;1.96;;;;;;;26.08;52.52;98023.41;372054;107;1968781;-74
2021/08/06 03:59:28;;;;;;;5.88;2.41;;;;;;;26.13;52.58;98020.41;396435;104;1986911;-72
2021/08/06 04:00:39;;;;;;;6.08;2.32;;;;;;;26.09;52.69;98025.84;377092;106;1961840;-73
2021/08/06 04:01:51;;;;;;;6.38;1.89;;;;;;;26.28;52.33;98027.98;386076;104;1984879;-72
2021/08/06 04:02:57;;;;;;;6.15;1.82;;;;;;;26.16;52.15;98032.73;372414;107;1967941;-72
2021/08/06 04:04:20;;;;;;;5.30;2.26;;;;;;;26.16;52.06;98032.73;369692;107;1962992;-73
2021/08/06 04:05:26;;;;;;;5.03;2.17;;;;;;;26.12;52.13;98020.74;319259;108;2419044;-73
2021/08/06 04:06:49;;;;;;;6.33;2.73;;;;;;;26.19;52.33;98030.07;390953;104;2074041;-73
2021/08/06 04:07:56;;;;;;;5.31;2.11;;;;;;;26.05;52.46;98038.75;374705;105;1962197;-72
2021/08/06 04:09:08;;;;;;;4.87;2.31;;;;;;;26.15;52.49;98031.14;392201;104;1965967;-72
2021/08/06 04:10:17;;;;;;;4.79;1.87;;;;;;;26.00;52.62;98030.69;374917;107;1961887;-73
2021/08/06 04:11:40;;;;;;;4.19;1.53;;;;;;;26.07;52.43;98039.22;375311;106;1962979;-74
2021/08/06 04:12:52;;;;;;;4.74;1.91;;;;;;;26.25;52.24;98033.40;391770;104;1985873;-72
2021/08/06 04:13:59;;;;;;;5.88;2.16;;;;;;;26.14;52.11;98041.38;364438;107;2857985;-71
2021/08/06 04:15:06;;;;;;;6.27;2.50;;;;;;;26.22;51.99;98045.17;362677;107;1961971;-72
2021/08/06 04:16:19;;;;;;;6.49;2.38;;;;;;;26.34;52.06;98047.92;357647;101;2780068;-72
2021/08/06 04:17:24;;;;;;;6.87;2.19;;;;;;;26.29;51.91;98053.70;333144;103;2130957;-73
2021/08/06 04:18:36;;;;;;;7.29;2.52;;;;;;;26.51;51.89;98061.50;381454;108;1986012;-73
2021/08/06 04:19:41;;;;;;;6.08;2.57;;;;;;;26.47;51.68;98070.86;358492;111;1962065;-74
2021/08/06 04:21:05;;;;;;;4.83;2.07;;;;;;;26.48;51.87;98075.22;314259;111;2091069;-71
2021/08/06 04:22:17;;;;;;;4.40;2.04;;;;;;;26.77;51.42;98056.70;398514;104;1985991;-73
2021/08/06 04:23:23;;;;;;;5.92;2.25;;;;;;;26.72;51.39;98068.83;372979;107;1962073;-73
2021/08/06 04:24:35;;;;;;;6.87;2.18;;;;;;;26.86;51.28;98063.72;392606;104;1985905;-72
2021/08/06 04:25:41;;;;;;;6.04;2.62;;;;;;;26.83;51.15;98058.05;330482;106;2787884;-73
2021/08/06 04:26:47;;;;;;;6.00;2.31;;;;;;;26.90;51.02;98055.48;376839;106;1961965;-73
2021/08/06 04:27:59;;;;;;;5.37;1.87;;;;;;;27.04;50.86;98061.41;390628;104;1985983;-73
2021/08/06 04:29:04;;;;;;;7.05;2.56;;;;;;;26.95;50.73;98053.27;370043;105;1962047;-73
2021/08/06 04:30:17;;;;;;;4.47;2.24;;;;;;;27.07;50.76;98051.59;385262;104;2906011;-72
2021/08/06 04:31:23;;;;;;;5.48;2.14;;;;;;;27.01;50.50;98045.50;334892;106;2883040;-73
2021/08/06 04:32:47;;;;;;;4.71;2.41;;;;;;;27.12;50.08;98054.91;372525;107;1962003;-73
2021/08/06 04:33:59;;;;;;;6.11;2.44;;;;;;;27.27;49.71;98047.81;382809;106;2072990;-72
2021/08/06 04:35:05;;;;;;;9.28;2.40;;;;;;;27.10;49.70;98045.36;365766;109;1962031;-73
2021/08/06 04:36:18;;;;;;;8.28;2.27;;;;;;;27.24;49.87;98045.75;394183;104;1964070;-73
2021/08/06 04:37:23;;;;;;;6.12;2.26;;;;;;;27.18;49.78;98061.05;375453;107;1969004;-72
2021/08/06 04:38:46;;;;;;;6.53;2.30;;;;;;;27.15;49.71;98054.22;368430;107;1962929;-72
2021/08/06 04:39:59;;;;;;;7.58;2.52;;;;;;;27.31;49.63;98057.05;387586;106;1986035;-72
2021/08/06 04:41:05;;;;;;;6.08;2.58;;;;;;;27.19;49.54;98052.36;333169;109;2007092;-72
2021/08/06 04:42:18;;;;;;;7.54;2.77;;;;;;;27.29;49.61;98064.10;393790;104;1984956;-73
2021/08/06 04:43:23;;;;;;;5.79;2.45;;;;;;;27.20;49.67;98069.79;373965;106;1962890;-73
2021/08/06 04:44:46;;;;;;;7.82;2.80;;;;;;;27.08;49.69;98070.64;332628;107;2086021;-72
2021/08/06 04:45:59;;;;;;;8.36;2.59;;;;;;;27.22;49.76;98074.99;393599;104;2072045;-72
2021/08/06 04:47:04;;;;;;;4.91;2.16;;;;;;;27.02;49.69;98066.53;373171;106;1962051;-73
2021/08/06 04:48:19;;;;;;;6.27;2.43;;;;;;;27.19;49.67;98068.19;340807;106;2893011;-72
2021/08/06 04:49:24;;;;;;;7.01;2.52;;;;;;;27.06;49.54;98072.95;359097;110;1962005;-72
2021/08/06 04:50:50;;;;;;;5.10;2.26;;;;;;;27.07;49.61;98065.45;357743;112;1961936;-73
2021/08/06 04:52:04;;;;;;;6.62;2.36;;;;;;;27.17;49.63;98068.53;344809;104;2840020;-73
2021/08/06 04:53:10;;;;;;;7.23;2.63;;;;;;;27.14;49.70;98076.73;375367;106;1970082;-73
2021/08/06 04:54:23;;;;;;;6.08;2.28;;;;;;;27.34;49.36;98072.95;393774;103;1988900;-73
2021/08/06 04:55:28;;;;;;;7.31;2.43;;;;;;;27.31;49.31;98078.39;363720;107;2898853;-73
2021/08/06 04:56:54;;;;;;;6.26;2.10;;;;;;;27.35;49.14;98063.47;370828;109;1962015;-72
2021/08/06 04:58:06;;;;;;;8.68;2.36;;;;;;;27.59;48.96;98058.92;379560;106;2071970;-72
2021/08/06 04:59:19;;;;;;;7.31;2.28;;;;;;;27.62;48.81;98063.75;394894;104;2071003;-74
2021/08/06 05:00:25;;;;;;;5.27;2.43;;;;;;;27.54;48.80;98068.30;353182;105;1969977;-73
2021/08/06 05:01:31;;;;;;;5.79;2.49;;;;;;;27.59;48.49;98061.70;369347;105;1962950;-73
2021/08/06 05:02:37;;;;;;;8.87;3.12;;;;;;;27.54;48.11;98056.41;380262;105;1961991;-72
2021/08/06 05:03:50;;;;;;;10.92;3.62;;;;;;;27.71;48.40;98061.61;375446;108;1985949;-73
2021/08/06 05:04:57;;;;;;;7.05;2.98;;;;;;;27.66;48.32;98059.11;299177;112;2290519;-73
2021/08/06 05:06:09;;;;;;;6.37;2.59;;;;;;;27.77;48.34;98060.17;401736;101;2072014;-73
2021/08/06 05:07:18;;;;;;;6.76;2.53;;;;;;;27.66;48.37;98072.98;387742;103;1963021;-72
2021/08/06 05:08:46;;;;;;;5.76;2.29;;;;;;;27.82;48.23;98068.25;379226;105;1963007;-72
2021/08/06 05:09:56;;;;;;;4.62;2.39;;;;;;;28.00;48.21;98076.21;396116;104;1986074;-73
2021/08/06 05:11:02;;;;;;;10.10;3.18;;;;;;;27.91;47.99;98076.38;374434;105;1960680;-71
2021/08/06 05:12:14;;;;;;;7.78;2.58;;;;;;;28.13;47.76;98087.98;387842;103;2071901;-73
2021/08/06 05:13:20;;;;;;;5.39;2.41;;;;;;;28.10;47.72;98091.48;374311;106;1963054;-72
2021/08/06 05:14:25;;;;;;;6.65;2.36;;;;;;;28.06;47.49;98096.97;378223;106;1961957;-73
2021/08/06 05:15:37;;;;;;;7.11;2.58;;;;;;;28.16;47.35;98099.19;395163;104;1986055;-73
2021/08/06 05:16:47;;;;;;;7.49;3.29;;;;;;;28.16;46.92;98096.42;372334;107;1964891;-72
2021/08/06 05:17:59;;;;;;;6.92;2.66;;;;;;;28.34;47.08;98107.94;382955;106;1987033;-73
2021/08/06 05:19:06;;;;;;;8.91;3.15;;;;;;;28.33;46.75;98103.53;346611;110;2863010;-72
2021/08/06 05:20:18;;;;;;;6.86;2.29;;;;;;;28.59;46.22;98100.18;375568;109;1972029;-72
2021/08/06 05:21:23;;;;;;;6.48;2.98;;;;;;;28.55;46.22;98099.28;353030;112;1961988;-71
2021/08/06 05:22:47;;;;;;;7.55;2.42;;;;;;;28.59;45.93;98099.38;334352;110;1962910;-73
2021/08/06 05:23:59;;;;;;;11.74;3.83;;;;;;;28.57;45.80;98110.84;402654;101;1987991;-73
2021/08/06 05:25:05;;;;;;;15.27;5.86;;;;;;;28.45;46.06;98106.23;383418;105;1963926;-73
2021/08/06 05:26:18;;;;;;;8.22;4.13;;;;;;;28.42;46.11;98106.94;368296;104;1974084;-73
2021/08/06 05:27:24;;;;;;;8.72;3.72;;;;;;;28.30;46.12;98109.82;356390;107;1961921;-72
2021/08/06 05:28:47;;;;;;;8.65;4.20;;;;;;;28.26;46.20;98115.30;367427;109;1962970;-71
2021/08/06 05:29:59;;;;;;;7.62;3.45;;;;;;;28.25;46.40;98121.20;390787;104;2080958;-73
2021/08/06 05:31:05;;;;;;;17.51;8.37;;;;;;;28.14;45.98;98125.70;375155;106;1962056;-72